createdAt,value
2018-12-17T00:02:06.627Z,1.60
2018-12-17T00:04:35.013Z,1.50
2018-12-17T00:11:59.555Z,1.50
2018-12-17T00:14:27.984Z,1.50
2018-12-17T00:16:56.378Z,1.50
2018-12-17T00:19:24.753Z,1.50
2018-12-17T00:21:53.116Z,1.40
2018-12-17T00:24:21.424Z,1.40
2018-12-17T00:26:49.806Z,1.40
2018-12-17T00:29:18.273Z,1.40
2018-12-17T00:31:46.582Z,1.30
2018-12-17T00:36:43.016Z,1.30
2018-12-17T00:39:11.399Z,1.30
2018-12-17T00:41:39.866Z,1.20
2018-12-17T00:44:08.183Z,1.00
2018-12-17T00:46:36.626Z,1.00
2018-12-17T00:49:05.066Z,1.00
2018-12-17T00:51:33.537Z,0.30
2018-12-17T00:54:01.985Z,1.00
2018-12-17T00:56:30.281Z,1.00
2018-12-17T00:58:58.624Z,1.00
2018-12-17T01:01:27.014Z,0.90
2018-12-17T01:06:23.490Z,0.80
2018-12-17T01:11:20.003Z,0.70
2018-12-17T01:13:48.415Z,0.70
2018-12-17T01:16:16.743Z,0.70
2018-12-17T01:18:45.112Z,0.70
2018-12-17T01:21:13.496Z,0.70
2018-12-17T01:23:42.029Z,0.80
2018-12-17T01:26:10.584Z,0.80
2018-12-17T01:28:39.238Z,0.70
2018-12-17T01:31:07.626Z,0.60
2018-12-17T01:33:35.921Z,0.60
2018-12-17T01:36:04.253Z,0.70
2018-12-17T01:38:32.608Z,0.60
2018-12-17T01:41:01.015Z,0.70
2018-12-17T01:43:29.308Z,0.70
2018-12-17T01:45:57.738Z,0.50
2018-12-17T01:48:26.101Z,0.50
2018-12-17T01:50:54.424Z,0.50
2018-12-17T01:53:22.661Z,0.40
2018-12-17T01:55:51.094Z,0.40
2018-12-17T01:58:19.424Z,0.40
2018-12-17T02:00:47.769Z,0.40
2018-12-17T02:03:16.146Z,0.40
2018-12-17T02:05:44.528Z,0.60
2018-12-17T02:13:09.190Z,0.30
2018-12-17T02:15:37.528Z,0.30
2018-12-17T02:18:05.911Z,0.40
2018-12-17T02:20:34.250Z,0.40
2018-12-17T02:23:02.670Z,0.30
2018-12-17T02:25:31.094Z,0.30
2018-12-17T02:27:59.411Z,0.30
2018-12-17T02:30:27.760Z,0.40
2018-12-17T02:32:56.121Z,0.30
2018-12-17T02:35:25.165Z,0.30
2018-12-17T02:37:53.651Z,0.30
2018-12-17T02:40:22.005Z,0.30
2018-12-17T02:42:50.468Z,0.20
2018-12-17T02:45:18.852Z,0.20
2018-12-17T02:47:47.164Z,0.20
2018-12-17T02:50:15.498Z,0.20
2018-12-17T02:52:43.880Z,0.20
2018-12-17T02:55:12.284Z,0.20
2018-12-17T02:57:40.615Z,0.30
2018-12-17T03:00:09.569Z,0.30
2018-12-17T03:02:37.941Z,0.30
2018-12-17T03:05:06.717Z,0.20
2018-12-17T03:07:35.090Z,0.20
2018-12-17T03:12:31.603Z,0.20
2018-12-17T03:14:59.904Z,0.00
2018-12-17T03:17:28.335Z,0.00
2018-12-17T03:19:56.762Z,0.00
2018-12-17T03:22:25.171Z,0.00
2018-12-17T03:24:53.561Z,-0.10
2018-12-17T03:27:21.870Z,-0.10
2018-12-17T03:29:50.277Z,-0.10
2018-12-17T03:32:18.628Z,0.00
2018-12-17T03:37:14.962Z,0.00
2018-12-17T03:39:43.191Z,-0.20
2018-12-17T03:42:11.601Z,-0.10
2018-12-17T03:44:39.984Z,-0.10
2018-12-17T03:47:08.464Z,-0.30
2018-12-17T03:49:36.864Z,-0.30
2018-12-17T03:52:05.285Z,-0.40
2018-12-17T03:54:33.664Z,-0.30
2018-12-17T03:57:02.003Z,-0.30
2018-12-17T03:59:30.384Z,-0.20
2018-12-17T04:01:58.711Z,-0.20
2018-12-17T04:04:27.202Z,-0.10
2018-12-17T04:14:20.443Z,-0.20
2018-12-17T04:16:48.922Z,-0.20
2018-12-17T04:19:17.434Z,-0.20
2018-12-17T04:21:45.938Z,-0.30
2018-12-17T04:24:14.435Z,-0.30
2018-12-17T04:26:42.912Z,-0.30
2018-12-17T04:29:11.494Z,-0.20
2018-12-17T04:31:40.126Z,-0.20
2018-12-17T04:34:08.601Z,-0.20
2018-12-17T04:36:37.066Z,-0.20
2018-12-17T04:39:06.761Z,-0.20
2018-12-17T04:41:35.286Z,-0.20
2018-12-17T04:44:03.820Z,-0.20
2018-12-17T04:46:32.406Z,-0.10
2018-12-17T04:49:00.974Z,0.00
2018-12-17T04:51:29.717Z,-0.10
2018-12-17T04:53:58.228Z,-0.10
2018-12-17T04:56:26.716Z,0.00
2018-12-17T04:58:55.166Z,-0.10
2018-12-17T05:01:23.672Z,-0.20
2018-12-17T05:03:52.186Z,-0.20
2018-12-17T05:06:20.709Z,-0.20
2018-12-17T05:08:49.135Z,-0.20
2018-12-17T05:16:14.236Z,-0.20
2018-12-17T05:18:42.773Z,-0.20
2018-12-17T05:21:11.208Z,-0.30
2018-12-17T05:23:39.652Z,-0.20
2018-12-17T05:26:08.020Z,-0.20
2018-12-17T05:28:36.346Z,-0.20
2018-12-17T05:31:04.733Z,-0.10
2018-12-17T05:33:33.289Z,-0.10
2018-12-17T05:36:01.947Z,-0.10
2018-12-17T05:38:30.602Z,-0.10
2018-12-17T05:40:59.027Z,-0.10
2018-12-17T05:48:19.805Z,1.80
2018-12-17T05:50:48.465Z,-0.40
2018-12-17T05:53:18.613Z,-0.30
2018-12-17T05:55:47.611Z,-0.40
2018-12-17T06:00:59.727Z,-0.30
2018-12-17T06:03:28.072Z,-0.30
2018-12-17T06:05:56.554Z,-0.40
2018-12-17T06:08:24.939Z,-0.40
2018-12-17T06:10:53.289Z,-0.40
2018-12-17T06:20:46.490Z,-0.50
2018-12-17T06:23:15.082Z,-0.50
2018-12-17T06:25:43.443Z,-0.50
2018-12-17T06:28:11.771Z,-0.50
2018-12-17T06:30:40.159Z,-0.60
2018-12-17T06:33:08.515Z,-0.60
2018-12-17T06:35:36.931Z,-0.60
2018-12-17T06:38:05.313Z,-0.60
2018-12-17T06:40:33.706Z,-0.50
2018-12-17T06:43:02.114Z,-0.50
2018-12-17T06:45:31.657Z,-0.50
2018-12-17T06:48:00.045Z,-0.70
2018-12-17T06:50:28.484Z,-0.70
2018-12-17T06:52:56.875Z,-0.60
2018-12-17T06:55:25.197Z,-0.60
2018-12-17T06:57:53.917Z,-0.60
2018-12-17T07:00:22.289Z,-0.70
2018-12-17T07:02:50.650Z,-0.60
2018-12-17T07:05:19.130Z,-0.70
2018-12-17T07:07:47.634Z,-0.70
2018-12-17T07:10:15.863Z,-0.80
2018-12-17T07:12:44.266Z,-0.70
2018-12-17T07:15:12.698Z,-0.60
2018-12-17T07:22:37.241Z,-0.80
2018-12-17T07:25:05.825Z,-0.90
2018-12-17T07:27:34.160Z,-0.90
2018-12-17T07:30:02.617Z,-0.90
2018-12-17T07:32:31.015Z,-0.80
2018-12-17T07:34:59.599Z,-0.80
2018-12-17T07:37:28.179Z,-0.70
2018-12-17T07:39:56.585Z,-0.90
2018-12-17T07:42:25.081Z,-0.90
2018-12-17T07:44:53.513Z,-0.90
2018-12-17T07:47:21.994Z,-0.90
2018-12-17T07:49:50.495Z,-1.00
2018-12-17T07:52:19.000Z,-1.00
2018-12-17T07:54:47.535Z,-1.00
2018-12-17T07:57:16.041Z,-1.00
2018-12-17T07:59:44.586Z,-0.90
2018-12-17T08:02:13.112Z,-1.00
2018-12-17T08:04:41.621Z,-1.00
2018-12-17T08:07:10.115Z,-0.90
2018-12-17T08:09:38.724Z,-0.90
2018-12-17T08:12:07.266Z,-0.80
2018-12-17T08:14:35.786Z,-0.80
2018-12-17T08:24:31.175Z,-0.30
2018-12-17T08:26:59.787Z,-0.30
2018-12-17T08:29:28.313Z,-0.20
2018-12-17T08:34:24.976Z,0.10
2018-12-17T08:36:53.537Z,0.10
2018-12-17T08:39:21.994Z,0.40
2018-12-17T08:41:50.554Z,0.50
2018-12-17T08:44:25.691Z,0.50
2018-12-17T08:49:22.346Z,0.40
2018-12-17T08:51:50.787Z,0.40
2018-12-17T08:54:19.300Z,0.50
2018-12-17T08:56:47.889Z,0.40
2018-12-17T08:59:16.301Z,0.40
2018-12-17T09:01:44.902Z,0.60
2018-12-17T09:04:13.348Z,0.50
2018-12-17T09:06:41.815Z,0.60
2018-12-17T09:09:10.234Z,0.70
2018-12-17T09:11:38.688Z,0.60
2018-12-17T09:14:07.237Z,0.90
2018-12-17T09:16:35.766Z,0.80
2018-12-17T09:26:28.816Z,1.30
2018-12-17T09:28:57.283Z,2.50
2018-12-17T09:31:25.774Z,3.70
2018-12-17T09:33:54.252Z,4.50
2018-12-17T09:36:22.743Z,4.60
2018-12-17T09:38:51.249Z,4.80
2018-12-17T09:41:19.772Z,4.50
2018-12-17T09:43:48.296Z,2.50
2018-12-17T09:46:16.739Z,3.90
2018-12-17T09:48:45.162Z,3.80
2018-12-17T09:51:19.426Z,4.00
2018-12-17T09:53:44.337Z,4.30
2018-12-17T09:56:12.854Z,4.30
2018-12-17T09:58:41.353Z,4.50
2018-12-17T10:01:09.824Z,4.50
2018-12-17T10:03:38.351Z,4.10
2018-12-17T10:06:06.857Z,4.20
2018-12-17T10:08:38.332Z,4.20
2018-12-17T10:11:06.945Z,4.40
2018-12-17T10:13:35.508Z,4.40
2018-12-17T10:16:04.043Z,4.60
2018-12-17T10:18:36.819Z,5.00
2018-12-17T10:28:27.712Z,4.80
2018-12-17T10:30:56.213Z,4.80
2018-12-17T10:33:24.490Z,4.80
2018-12-17T10:35:52.916Z,5.20
2018-12-17T10:38:21.387Z,5.30
2018-12-17T10:40:49.692Z,5.50
2018-12-17T10:43:18.095Z,5.80
2018-12-17T10:45:46.518Z,6.00
2018-12-17T10:48:14.928Z,6.10
2018-12-17T10:50:43.362Z,6.20
2018-12-17T10:53:11.609Z,6.20
2018-12-17T10:55:39.888Z,6.20
2018-12-17T10:58:08.264Z,6.30
2018-12-17T11:00:41.885Z,6.40
2018-12-17T11:03:14.685Z,6.30
2018-12-17T11:05:44.930Z,5.50
2018-12-17T11:08:13.332Z,6.30
2018-12-17T11:10:41.729Z,6.30
2018-12-17T11:13:10.221Z,6.30
2018-12-17T11:15:38.563Z,6.50
2018-12-17T11:18:07.007Z,5.80
2018-12-17T11:20:35.426Z,6.40
2018-12-17T11:23:04.765Z,6.30
2018-12-17T11:28:01.284Z,6.00
2018-12-17T11:30:29.633Z,6.50
2018-12-17T11:32:58.046Z,6.40
2018-12-17T11:35:26.454Z,6.50
2018-12-17T11:37:54.867Z,6.50
2018-12-17T11:40:23.247Z,6.40
2018-12-17T11:42:51.523Z,6.40
2018-12-17T11:45:19.878Z,6.40
2018-12-17T11:47:48.276Z,6.40
2018-12-17T11:50:16.580Z,6.40
2018-12-17T11:52:44.982Z,6.40
2018-12-17T11:55:13.312Z,6.40
2018-12-17T11:58:23.502Z,5.40
2018-12-17T12:00:57.107Z,6.30
2018-12-17T12:03:25.539Z,6.30
2018-12-17T12:05:53.737Z,6.20
2018-12-17T12:08:21.932Z,6.00
2018-12-17T12:10:50.239Z,6.30
2018-12-17T12:15:46.613Z,5.80
2018-12-17T12:18:14.959Z,6.20
2018-12-17T12:20:43.392Z,6.10
2018-12-17T12:23:11.787Z,6.10
2018-12-17T12:25:40.134Z,6.20
2018-12-17T12:28:08.390Z,6.20
2018-12-17T12:30:36.772Z,6.20
2018-12-17T12:33:05.267Z,6.40
2018-12-17T12:35:33.561Z,6.50
2018-12-17T12:38:01.878Z,6.40
2018-12-17T12:40:30.278Z,6.60
2018-12-17T12:42:58.629Z,6.50
2018-12-17T12:45:27.072Z,6.50
2018-12-17T12:47:55.424Z,6.50
2018-12-17T12:50:23.660Z,6.50
2018-12-17T12:52:52.049Z,6.50
2018-12-17T12:55:20.388Z,6.50
2018-12-17T12:57:48.771Z,6.50
2018-12-17T13:00:17.179Z,6.50
2018-12-17T13:02:45.580Z,6.60
2018-12-17T13:05:13.875Z,6.70
2018-12-17T13:07:42.341Z,6.60
2018-12-17T13:10:11.226Z,6.60
2018-12-17T13:12:39.724Z,6.50
2018-12-17T13:20:06.681Z,6.70
2018-12-17T13:22:35.006Z,6.60
2018-12-17T13:25:03.945Z,6.60
2018-12-17T13:27:32.280Z,6.60
2018-12-17T13:30:00.647Z,6.60
2018-12-17T13:32:29.056Z,6.50
2018-12-17T13:34:57.560Z,6.50
2018-12-17T13:37:25.957Z,6.50
2018-12-17T13:39:54.394Z,6.40
2018-12-17T13:42:24.316Z,6.40
2018-12-17T13:44:52.994Z,6.40
2018-12-17T13:47:21.424Z,6.40
2018-12-17T13:49:49.773Z,6.40
2018-12-17T13:52:23.450Z,6.40
2018-12-17T13:54:51.800Z,6.30
2018-12-17T13:57:20.139Z,6.30
2018-12-17T13:59:48.552Z,6.30
2018-12-17T14:02:16.914Z,6.30
2018-12-17T14:04:45.331Z,6.30
2018-12-17T14:07:13.818Z,6.30
2018-12-17T14:09:47.535Z,6.30
2018-12-17T14:12:15.901Z,6.30
2018-12-17T14:17:18.004Z,6.30
2018-12-17T14:19:50.632Z,6.40
2018-12-17T14:22:19.035Z,6.40
2018-12-17T14:24:47.359Z,6.40
2018-12-17T14:27:15.578Z,6.50
2018-12-17T14:29:43.916Z,6.50
2018-12-17T14:32:12.305Z,6.50
2018-12-17T14:34:40.721Z,6.40
2018-12-17T14:37:09.184Z,6.40
2018-12-17T14:39:37.657Z,6.40
2018-12-17T14:42:06.037Z,6.40
2018-12-17T14:44:34.936Z,6.30
2018-12-17T14:47:03.634Z,6.40
2018-12-17T14:49:32.100Z,6.30
2018-12-17T14:52:00.524Z,6.30
2018-12-17T14:54:28.931Z,6.30
2018-12-17T14:56:57.450Z,6.30
2018-12-17T14:59:25.832Z,6.30
2018-12-17T15:01:54.319Z,6.30
2018-12-17T15:04:22.734Z,6.30
2018-12-17T15:06:51.052Z,6.30
2018-12-17T15:09:19.546Z,6.20
2018-12-17T15:11:47.889Z,6.20
2018-12-17T15:16:44.353Z,6.10
2018-12-17T15:19:13.919Z,6.40
2018-12-17T15:21:42.494Z,6.10
2018-12-17T15:24:10.877Z,6.00
2018-12-17T15:26:39.168Z,5.90
2018-12-17T15:29:07.603Z,5.80
2018-12-17T15:31:42.830Z,5.80
2018-12-17T15:34:06.479Z,5.60
2018-12-17T15:36:35.042Z,5.50
2018-12-17T15:39:04.351Z,5.50
2018-12-17T15:41:32.848Z,5.40
2018-12-17T15:44:01.222Z,5.30
2018-12-17T15:46:29.698Z,5.20
2018-12-17T15:48:58.035Z,5.10
2018-12-17T15:51:26.519Z,5.10
2018-12-17T15:53:55.005Z,5.10
2018-12-17T15:56:23.424Z,5.10
2018-12-17T15:58:51.924Z,5.10
2018-12-17T16:01:20.564Z,5.10
2018-12-17T16:03:49.035Z,5.00
2018-12-17T16:06:17.478Z,5.10
2018-12-17T16:08:46.014Z,5.00
2018-12-17T16:11:14.410Z,4.80
2018-12-17T16:13:42.758Z,4.80
2018-12-17T16:21:07.477Z,4.80
2018-12-17T16:26:03.912Z,4.70
2018-12-17T16:28:32.358Z,4.50
2018-12-17T16:31:00.783Z,4.40
2018-12-17T16:33:30.025Z,4.40
2018-12-17T16:35:58.728Z,4.40
2018-12-17T16:38:27.207Z,4.40
2018-12-17T16:40:55.661Z,4.40
2018-12-17T16:43:24.202Z,4.40
2018-12-17T16:45:52.612Z,4.50
2018-12-17T16:48:20.894Z,4.50
2018-12-17T16:50:49.319Z,4.50
2018-12-17T16:53:17.842Z,4.40
2018-12-17T16:55:46.140Z,4.40
2018-12-17T16:58:14.444Z,4.40
2018-12-17T17:00:42.877Z,4.40
2018-12-17T17:03:11.291Z,4.40
2018-12-17T17:05:39.833Z,4.40
2018-12-17T17:08:08.318Z,4.40
2018-12-17T17:10:36.767Z,4.40
2018-12-17T17:13:05.145Z,4.20
2018-12-17T17:15:33.539Z,4.40
2018-12-17T17:22:58.781Z,4.70
2018-12-17T17:25:27.257Z,4.40
2018-12-17T17:27:56.801Z,4.50
2018-12-17T17:30:25.908Z,4.40
2018-12-17T17:32:54.193Z,4.40
2018-12-17T17:35:22.563Z,4.40
2018-12-17T17:37:50.913Z,4.40
2018-12-17T17:40:19.157Z,4.30
2018-12-17T17:42:47.429Z,4.30
2018-12-17T17:45:15.694Z,4.30
2018-12-17T17:47:43.929Z,4.30
2018-12-17T17:50:12.176Z,4.30
2018-12-17T17:52:40.654Z,4.30
2018-12-17T17:55:08.941Z,4.30
2018-12-17T17:57:37.226Z,4.30
2018-12-17T18:00:05.573Z,4.30
2018-12-17T18:02:33.826Z,4.40
2018-12-17T18:05:02.113Z,4.50
2018-12-17T18:07:30.327Z,4.60
2018-12-17T18:09:58.568Z,4.60
2018-12-17T18:12:26.888Z,4.60
2018-12-17T18:14:55.149Z,4.80
2018-12-17T18:17:23.389Z,4.90
2018-12-17T18:22:19.746Z,4.90
2018-12-17T18:27:15.929Z,5.00
2018-12-17T18:29:44.206Z,5.00
2018-12-17T18:32:12.414Z,5.00
2018-12-17T18:34:40.719Z,5.00
2018-12-17T18:37:09.020Z,5.00
2018-12-17T18:39:37.284Z,4.90
2018-12-17T18:42:05.500Z,4.80
2018-12-17T18:44:33.784Z,4.80
2018-12-17T18:47:02.009Z,4.80
2018-12-17T18:49:30.335Z,4.90
2018-12-17T18:51:58.548Z,4.80
2018-12-17T18:54:26.893Z,4.80
2018-12-17T18:56:55.113Z,4.90
2018-12-17T18:59:23.347Z,4.90
2018-12-17T19:01:51.694Z,4.90
2018-12-17T19:04:19.941Z,5.00
2018-12-17T19:06:48.196Z,5.00
2018-12-17T19:09:16.469Z,5.10
2018-12-17T19:11:44.672Z,5.10
2018-12-17T19:14:12.872Z,5.10
2018-12-17T19:16:41.205Z,5.10
2018-12-17T19:19:09.403Z,5.20
2018-12-17T19:29:01.876Z,5.20
2018-12-17T19:31:34.547Z,5.30
2018-12-17T19:34:00.461Z,5.30
2018-12-17T19:36:28.802Z,5.30
2018-12-17T19:38:57.177Z,5.30
2018-12-17T19:41:25.458Z,5.20
2018-12-17T19:43:53.688Z,5.20
2018-12-17T19:46:21.913Z,5.20
2018-12-17T19:48:50.136Z,5.10
2018-12-17T19:51:18.352Z,5.10
2018-12-17T19:53:46.609Z,5.10
2018-12-17T19:56:14.829Z,5.10
2018-12-17T19:58:43.136Z,5.10
2018-12-17T20:01:11.388Z,5.10
2018-12-17T20:03:39.601Z,5.10
2018-12-17T20:06:07.848Z,5.10
2018-12-17T20:08:36.108Z,5.10
2018-12-17T20:11:04.443Z,5.10
2018-12-17T20:13:32.669Z,5.00
2018-12-17T20:16:00.886Z,5.00
2018-12-17T20:18:29.121Z,5.00
2018-12-17T20:20:57.354Z,4.90
2018-12-17T20:23:25.615Z,4.90
2018-12-17T20:33:17.848Z,4.90
2018-12-17T20:35:46.204Z,4.90
2018-12-17T20:38:14.503Z,4.90
2018-12-17T20:40:42.756Z,4.90
2018-12-17T20:43:11.030Z,4.90
2018-12-17T20:45:39.227Z,4.80
2018-12-17T20:48:07.520Z,4.70
2018-12-17T20:50:35.854Z,4.60
2018-12-17T20:53:04.096Z,4.60
2018-12-17T20:55:32.353Z,4.60
2018-12-17T20:58:00.613Z,4.70
2018-12-17T21:00:28.897Z,4.70
2018-12-17T21:03:00.271Z,4.70
2018-12-17T21:05:27.409Z,4.70
2018-12-17T21:07:55.616Z,4.60
2018-12-17T21:10:23.829Z,4.60
2018-12-17T21:12:52.060Z,4.60
2018-12-17T21:15:20.295Z,4.60
2018-12-17T21:17:48.576Z,4.50
2018-12-17T21:20:16.837Z,4.40
2018-12-17T21:22:45.285Z,4.50
2018-12-17T21:25:13.499Z,4.40
2018-12-17T21:27:41.729Z,4.40
2018-12-17T21:32:38.157Z,4.40
2018-12-17T21:35:06.769Z,4.30
2018-12-17T21:37:35.028Z,4.30
2018-12-17T21:40:03.348Z,4.30
2018-12-17T21:42:31.649Z,4.30
2018-12-17T21:44:59.985Z,4.40
2018-12-17T21:47:28.213Z,4.40
2018-12-17T21:49:56.464Z,4.30
2018-12-17T21:52:27.773Z,4.40
2018-12-17T21:58:27.164Z,4.40
2018-12-17T22:00:55.378Z,4.30
2018-12-17T22:03:23.677Z,4.20
2018-12-17T22:05:51.886Z,4.30
2018-12-17T22:08:20.119Z,4.30
2018-12-17T22:10:48.352Z,4.30
2018-12-17T22:13:16.557Z,4.40
2018-12-17T22:15:44.872Z,3.90
2018-12-17T22:18:13.084Z,4.30
2018-12-17T22:20:41.326Z,4.40
2018-12-17T22:23:09.532Z,4.30
2018-12-17T22:25:37.803Z,4.40
2018-12-17T22:28:06.008Z,4.40
2018-12-17T22:30:34.224Z,4.30
2018-12-17T22:33:02.475Z,4.40
2018-12-17T22:35:30.876Z,4.40
2018-12-17T22:37:59.232Z,4.30
2018-12-17T22:40:27.510Z,4.30
2018-12-17T22:42:55.813Z,4.20
2018-12-17T22:47:51.998Z,4.30
2018-12-17T22:50:20.220Z,4.40
2018-12-17T22:52:48.445Z,4.50
2018-12-17T22:55:16.670Z,4.60
2018-12-17T22:57:44.972Z,4.60
2018-12-17T23:00:13.199Z,4.50
2018-12-17T23:02:41.412Z,4.50
2018-12-17T23:05:09.651Z,4.50
2018-12-17T23:07:37.917Z,4.50
2018-12-17T23:10:17.643Z,4.50
2018-12-17T23:12:57.288Z,4.50
2018-12-17T23:15:36.953Z,4.50
2018-12-17T23:18:04.297Z,4.50
2018-12-17T23:20:32.577Z,4.40
2018-12-17T23:23:00.810Z,4.40
2018-12-17T23:25:29.008Z,4.50
2018-12-17T23:27:57.217Z,4.40
2018-12-17T23:30:25.444Z,4.50
2018-12-17T23:32:53.706Z,4.50
2018-12-17T23:35:21.931Z,4.50
2018-12-17T23:37:50.227Z,4.60
2018-12-17T23:40:18.451Z,4.50
2018-12-17T23:42:46.652Z,4.60
2018-12-17T23:45:16.448Z,4.60
2018-12-17T23:47:44.699Z,4.70
2018-12-17T23:50:12.908Z,4.60
2018-12-17T23:52:41.123Z,4.60
2018-12-17T23:55:09.341Z,4.60
2018-12-17T23:57:37.586Z,4.60
